Terminal Aerodrome Forecast
Issued by NWS

Home | Current Version | Previous Version | Text Only | Print | Product List | Glossary On
Versions: 1 2 3 4 5 6 7 8 9 10 11 12 13 14 15 16 17
000
FTUS45 KABQ 301120
TAFLVS
TAF
KLVS 301120Z 3012/3112 03004KT P6SM FEW200
     FM301500 29009KT P6SM FEW200
     FM301800 25011G21KT P6SM BKN200
     FM302000 25018G28KT P6SM BKN200
     FM310200 21014KT P6SM BKN150=

USA.gov is the U.S. government's official web portal to all federal, state and local government web resources and services.